sensor_id;sensor_type;location;lat;lon;timestamp;pressure;altitude;pressure_sealevel;temperature;humidity
64243;BME280;50573;51.512;5.386;2023-04-21T00:06:44;101210.78;;;7.65;100.00
64243;BME280;50573;51.512;5.386;2023-04-21T00:16:48;101196.88;;;7.59;100.00
64243;BME280;50573;51.512;5.386;2023-04-21T00:26:53;101176.00;;;7.56;100.00
64243;BME280;50573;51.512;5.386;2023-04-21T00:36:57;101173.94;;;7.67;100.00
64243;BME280;50573;51.512;5.386;2023-04-21T00:47:00;101159.69;;;7.63;100.00
64243;BME280;50573;51.512;5.386;2023-04-21T00:57:05;101159.75;;;7.56;100.00
64243;BME280;50573;51.512;5.386;2023-04-21T01:07:09;101167.44;;;7.61;100.00
64243;BME280;50573;51.512;5.386;2023-04-21T01:17:13;101151.59;;;7.56;100.00
64243;BME280;50573;51.512;5.386;2023-04-21T01:27:22;101129.75;;;7.70;100.00
64243;BME280;50573;51.512;5.386;2023-04-21T01:37:29;101129.03;;;7.66;100.00
64243;BME280;50573;51.512;5.386;2023-04-21T01:47:34;101127.59;;;7.58;100.00
64243;BME280;50573;51.512;5.386;2023-04-21T01:57:37;101101.69;;;7.54;100.00
64243;BME280;50573;51.512;5.386;2023-04-21T02:07:41;101069.91;;;7.54;100.00
64243;BME280;50573;51.512;5.386;2023-04-21T02:17:44;101083.56;;;7.47;100.00
64243;BME280;50573;51.512;5.386;2023-04-21T02:27:49;101065.31;;;7.51;100.00
64243;BME280;50573;51.512;5.386;2023-04-21T02:37:52;101063.03;;;7.46;100.00
64243;BME280;50573;51.512;5.386;2023-04-21T02:48:04;101059.09;;;7.51;100.00
64243;BME280;50573;51.512;5.386;2023-04-21T02:58:10;101067.13;;;7.61;100.00
64243;BME280;50573;51.512;5.386;2023-04-21T03:08:14;101057.47;;;7.60;100.00
64243;BME280;50573;51.512;5.386;2023-04-21T03:18:17;101050.75;;;7.38;100.00
64243;BME280;50573;51.512;5.386;2023-04-21T03:28:22;101062.53;;;7.21;100.00
64243;BME280;50573;51.512;5.386;2023-04-21T03:38:27;101045.59;;;7.10;100.00
64243;BME280;50573;51.512;5.386;2023-04-21T03:48:32;101052.22;;;7.09;100.00
64243;BME280;50573;51.512;5.386;2023-04-21T03:58:35;101044.72;;;7.20;100.00
64243;BME280;50573;51.512;5.386;2023-04-21T04:08:40;101044.19;;;7.36;100.00
64243;BME280;50573;51.512;5.386;2023-04-21T04:18:43;101039.47;;;7.43;100.00
64243;BME280;50573;51.512;5.386;2023-04-21T04:28:47;101032.78;;;7.51;100.00
64243;BME280;50573;51.512;5.386;2023-04-21T04:38:50;101043.97;;;7.57;100.00
64243;BME280;50573;51.512;5.386;2023-04-21T04:48:55;101052.06;;;7.60;100.00
64243;BME280;50573;51.512;5.386;2023-04-21T04:58:58;101049.34;;;7.60;100.00
64243;BME280;50573;51.512;5.386;2023-04-21T05:09:02;101055.47;;;7.64;100.00
64243;BME280;50573;51.512;5.386;2023-04-21T05:19:06;101051.09;;;7.74;100.00
64243;BME280;50573;51.512;5.386;2023-04-21T05:29:11;101063.75;;;7.84;100.00
64243;BME280;50573;51.512;5.386;2023-04-21T05:39:14;101086.28;;;8.07;100.00
64243;BME280;50573;51.512;5.386;2023-04-21T05:49:18;101085.19;;;8.05;100.00
64243;BME280;50573;51.512;5.386;2023-04-21T05:59:21;101087.75;;;8.15;100.00
64243;BME280;50573;51.512;5.386;2023-04-21T06:09:25;101078.72;;;8.22;100.00
64243;BME280;50573;51.512;5.386;2023-04-21T06:19:28;101078.25;;;8.30;100.00
64243;BME280;50573;51.512;5.386;2023-04-21T06:29:33;101078.69;;;8.56;100.00
64243;BME280;50573;51.512;5.386;2023-04-21T06:39:36;101091.50;;;8.78;100.00
64243;BME280;50573;51.512;5.386;2023-04-21T06:49:40;101082.22;;;8.76;100.00
64243;BME280;50573;51.512;5.386;2023-04-21T06:59:43;101087.25;;;9.00;100.00
64243;BME280;50573;51.512;5.386;2023-04-21T07:09:47;101085.50;;;9.33;100.00
64243;BME280;50573;51.512;5.386;2023-04-21T07:19:50;101089.16;;;9.46;100.00
64243;BME280;50573;51.512;5.386;2023-04-21T07:29:55;101100.22;;;9.74;100.00
64243;BME280;50573;51.512;5.386;2023-04-21T07:39:58;101077.91;;;10.03;100.00
64243;BME280;50573;51.512;5.386;2023-04-21T07:50:03;101082.66;;;10.34;100.00
64243;BME280;50573;51.512;5.386;2023-04-21T08:00:06;101079.88;;;10.54;96.00
64243;BME280;50573;51.512;5.386;2023-04-21T08:10:14;101070.09;;;10.88;100.00
64243;BME280;50573;51.512;5.386;2023-04-21T08:20:17;101080.19;;;11.04;93.44
64243;BME280;50573;51.512;5.386;2023-04-21T08:30:22;101070.66;;;11.41;90.68
64243;BME280;50573;51.512;5.386;2023-04-21T08:40:31;101064.28;;;11.60;90.09
64243;BME280;50573;51.512;5.386;2023-04-21T08:50:39;101063.63;;;12.09;87.90
64243;BME280;50573;51.512;5.386;2023-04-21T09:00:45;101080.16;;;12.31;85.19
64243;BME280;50573;51.512;5.386;2023-04-21T09:10:50;101059.03;;;12.82;82.44
64243;BME280;50573;51.512;5.386;2023-04-21T09:21:05;101055.00;;;13.20;80.09
64243;BME280;50573;51.512;5.386;2023-04-21T09:31:13;101046.97;;;13.69;81.49
64243;BME280;50573;51.512;5.386;2023-04-21T09:41:18;101046.84;;;13.72;76.14
64243;BME280;50573;51.512;5.386;2023-04-21T09:51:23;101051.91;;;14.14;73.01
64243;BME280;50573;51.512;5.386;2023-04-21T10:01:48;101041.09;;;14.41;70.63
64243;BME280;50573;51.512;5.386;2023-04-21T10:11:55;101043.22;;;15.21;71.24
64243;BME280;50573;51.512;5.386;2023-04-21T10:21:59;101028.53;;;15.33;70.33
64243;BME280;50573;51.512;5.386;2023-04-21T10:32:04;101013.50;;;14.93;70.73
64243;BME280;50573;51.512;5.386;2023-04-21T10:42:27;101007.69;;;15.00;71.27
64243;BME280;50573;51.512;5.386;2023-04-21T10:52:32;100991.84;;;15.04;69.85
64243;BME280;50573;51.512;5.386;2023-04-21T11:02:34;100987.47;;;15.66;70.19
64243;BME280;50573;51.512;5.386;2023-04-21T11:12:43;100965.22;;;15.64;67.49
64243;BME280;50573;51.512;5.386;2023-04-21T11:22:51;100948.09;;;15.78;66.15
64243;BME280;50573;51.512;5.386;2023-04-21T11:32:55;100933.41;;;15.40;65.65
64243;BME280;50573;51.512;5.386;2023-04-21T11:42:58;100920.31;;;16.09;66.17
64243;BME280;50573;51.512;5.386;2023-04-21T11:53:02;100903.06;;;15.76;66.45
64243;BME280;50573;51.512;5.386;2023-04-21T12:03:07;100901.66;;;16.36;61.49
64243;BME280;50573;51.512;5.386;2023-04-21T12:13:20;100893.69;;;16.38;60.99
64243;BME280;50573;51.512;5.386;2023-04-21T12:23:24;100888.03;;;15.95;64.67
64243;BME280;50573;51.512;5.386;2023-04-21T12:33:29;100869.47;;;16.28;63.14
64243;BME280;50573;51.512;5.386;2023-04-21T12:43:33;100866.50;;;16.40;61.73
64243;BME280;50573;51.512;5.386;2023-04-21T12:53:37;100857.16;;;16.00;62.31
64243;BME280;50573;51.512;5.386;2023-04-21T13:03:40;100846.75;;;16.27;63.09
64243;BME280;50573;51.512;5.386;2023-04-21T13:13:45;100832.75;;;16.16;61.37
64243;BME280;50573;51.512;5.386;2023-04-21T13:23:48;100836.38;;;17.19;58.24
64243;BME280;50573;51.512;5.386;2023-04-21T13:33:57;100832.41;;;17.69;58.18
64243;BME280;50573;51.512;5.386;2023-04-21T13:44:04;100813.94;;;18.35;53.75
64243;BME280;50573;51.512;5.386;2023-04-21T13:54:09;100805.66;;;18.35;54.67
64243;BME280;50573;51.512;5.386;2023-04-21T14:04:12;100780.50;;;17.62;57.78
64243;BME280;50573;51.512;5.386;2023-04-21T14:14:18;100760.25;;;17.65;59.96
64243;BME280;50573;51.512;5.386;2023-04-21T14:24:38;100751.94;;;18.51;57.22
64243;BME280;50573;51.512;5.386;2023-04-21T14:34:46;100737.22;;;19.27;55.76
64243;BME280;50573;51.512;5.386;2023-04-21T14:44:54;100713.00;;;18.43;57.40
64243;BME280;50573;51.512;5.386;2023-04-21T14:54:59;100709.09;;;18.86;56.85
64243;BME280;50573;51.512;5.386;2023-04-21T15:05:06;100698.75;;;18.81;56.39
64243;BME280;50573;51.512;5.386;2023-04-21T15:15:13;100683.63;;;17.89;59.94
64243;BME280;50573;51.512;5.386;2023-04-21T15:25:16;100680.84;;;17.63;61.94
64243;BME280;50573;51.512;5.386;2023-04-21T15:35:24;100649.56;;;18.18;61.32
64243;BME280;50573;51.512;5.386;2023-04-21T15:45:30;100627.72;;;18.14;61.71
64243;BME280;50573;51.512;5.386;2023-04-21T15:55:40;100615.03;;;17.71;62.00
64243;BME280;50573;51.512;5.386;2023-04-21T16:05:47;100584.34;;;17.38;63.29
64243;BME280;50573;51.512;5.386;2023-04-21T16:15:58;100579.81;;;17.35;64.71
64243;BME280;50573;51.512;5.386;2023-04-21T16:26:03;100561.91;;;17.45;65.31
64243;BME280;50573;51.512;5.386;2023-04-21T16:36:14;100567.22;;;17.74;60.41
64243;BME280;50573;51.512;5.386;2023-04-21T16:46:20;100554.84;;;17.64;57.55
64243;BME280;50573;51.512;5.386;2023-04-21T16:56:31;100536.81;;;17.43;55.41
64243;BME280;50573;51.512;5.386;2023-04-21T17:06:37;100519.72;;;17.33;58.20
64243;BME280;50573;51.512;5.386;2023-04-21T17:16:50;100503.34;;;16.99;60.26
64243;BME280;50573;51.512;5.386;2023-04-21T17:26:54;100547.13;;;16.13;76.05
64243;BME280;50573;51.512;5.386;2023-04-21T17:36:59;100562.66;;;14.49;84.81
64243;BME280;50573;51.512;5.386;2023-04-21T17:47:05;100523.91;;;13.81;82.16
64243;BME280;50573;51.512;5.386;2023-04-21T17:57:10;100500.47;;;13.21;83.57
64243;BME280;50573;51.512;5.386;2023-04-21T18:07:14;100500.03;;;13.04;85.92
64243;BME280;50573;51.512;5.386;2023-04-21T18:17:18;100480.69;;;12.72;88.02
64243;BME280;50573;51.512;5.386;2023-04-21T18:27:24;100513.31;;;12.48;87.52
64243;BME280;50573;51.512;5.386;2023-04-21T18:37:28;100552.19;;;12.21;86.84
64243;BME280;50573;51.512;5.386;2023-04-21T18:47:33;100560.75;;;12.02;89.36
64243;BME280;50573;51.512;5.386;2023-04-21T18:57:37;100537.19;;;11.86;89.90
64243;BME280;50573;51.512;5.386;2023-04-21T19:07:40;100532.28;;;11.60;90.87
64243;BME280;50573;51.512;5.386;2023-04-21T19:17:45;100505.09;;;11.47;90.69
64243;BME280;50573;51.512;5.386;2023-04-21T19:27:48;100515.78;;;11.42;94.40
64243;BME280;50573;51.512;5.386;2023-04-21T19:37:56;100523.09;;;11.45;95.71
64243;BME280;50573;51.512;5.386;2023-04-21T19:47:59;100516.75;;;11.48;95.51
64243;BME280;50573;51.512;5.386;2023-04-21T19:58:04;100624.25;;;11.59;95.76
64243;BME280;50573;51.512;5.386;2023-04-21T20:08:07;100674.97;;;11.48;93.68
64243;BME280;50573;51.512;5.386;2023-04-21T20:18:12;100697.28;;;11.08;100.00
64243;BME280;50573;51.512;5.386;2023-04-21T20:28:15;100699.91;;;10.74;100.00
64243;BME280;50573;51.512;5.386;2023-04-21T20:38:19;100711.00;;;10.67;100.00
64243;BME280;50573;51.512;5.386;2023-04-21T20:48:24;100654.84;;;10.20;100.00
64243;BME280;50573;51.512;5.386;2023-04-21T20:58:29;100594.22;;;10.19;100.00
64243;BME280;50573;51.512;5.386;2023-04-21T21:08:33;100588.50;;;10.01;100.00
64243;BME280;50573;51.512;5.386;2023-04-21T21:18:37;100581.06;;;9.89;100.00
64243;BME280;50573;51.512;5.386;2023-04-21T21:28:40;100577.34;;;9.83;100.00
64243;BME280;50573;51.512;5.386;2023-04-21T21:38:45;100548.66;;;9.53;100.00
64243;BME280;50573;51.512;5.386;2023-04-21T21:48:48;100539.25;;;9.42;100.00
64243;BME280;50573;51.512;5.386;2023-04-21T21:58:52;100533.41;;;9.15;100.00
64243;BME280;50573;51.512;5.386;2023-04-21T22:08:55;100539.47;;;8.90;100.00
64243;BME280;50573;51.512;5.386;2023-04-21T22:19:00;100532.56;;;8.73;100.00
64243;BME280;50573;51.512;5.386;2023-04-21T22:29:06;100538.50;;;8.68;100.00
64243;BME280;50573;51.512;5.386;2023-04-21T22:39:11;100541.63;;;8.51;100.00
64243;BME280;50573;51.512;5.386;2023-04-21T22:49:14;100536.94;;;8.35;100.00
64243;BME280;50573;51.512;5.386;2023-04-21T22:59:19;100518.56;;;8.26;100.00
64243;BME280;50573;51.512;5.386;2023-04-21T23:09:22;100520.31;;;8.17;100.00
64243;BME280;50573;51.512;5.386;2023-04-21T23:19:26;100514.75;;;8.04;100.00
64243;BME280;50573;51.512;5.386;2023-04-21T23:29:30;100511.38;;;8.00;100.00
64243;BME280;50573;51.512;5.386;2023-04-21T23:39:34;100512.75;;;8.08;100.00
64243;BME280;50573;51.512;5.386;2023-04-21T23:49:38;100519.75;;;8.06;100.00
64243;BME280;50573;51.512;5.386;2023-04-21T23:59:43;100518.84;;;7.77;100.00
